Time;durP1;ratioP1;P1;durP2;ratioP2;P2;SDS_P1;SDS_P2;PMS_P1;PMS_P2;Temp;Humidity;BMP_temperature;BMP_pressure;BME280_temperature;BME280_humidity;BME280_pressure;Samples;Min_cycle;Max_cycle;Signal;HPM_P1;HPM_P2
2022/01/13 00:02:48;;;;;;;;;60.25;46.00;;;;;4.29;42.28;100509.84;6088808;28;96845;-65
2022/01/13 00:05:52;;;;;;;;;59.60;46.60;;;;;4.32;42.07;100511.38;6089490;28;97179;-65
2022/01/13 00:08:56;;;;;;;;;59.00;46.00;;;;;4.32;41.89;100506.03;6088687;28;96674;-65
2022/01/13 00:12:00;;;;;;;;;65.00;49.50;;;;;4.32;41.87;100506.03;6089653;28;96583;-65
2022/01/13 00:15:21;;;;;;;;;67.20;49.00;;;;;4.30;42.23;100494.66;6089563;28;97466;-65
2022/01/13 00:18:38;;;;;;;;;59.00;46.00;;;;;4.25;42.25;100488.91;6072212;28;97227;-65
2022/01/13 00:21:48;;;;;;;;;63.00;48.00;;;;;3.91;42.61;100456.47;6088057;28;98441;-65
2022/01/13 00:24:57;;;;;;;;;62.00;48.00;;;;;4.02;42.86;100484.84;6087580;28;98552;-65
2022/01/13 00:28:05;;;;;;;;;61.40;48.60;;;;;4.06;42.91;100475.56;6089730;28;97444;-65
2022/01/13 00:31:08;;;;;;;;;63.40;49.40;;;;;4.12;42.82;100475.84;6089089;28;97223;-65
2022/01/13 00:34:12;;;;;;;;;63.50;50.00;;;;;4.06;43.18;100470.22;6088074;28;96689;-65
2022/01/13 00:37:15;;;;;;;;;66.00;50.40;;;;;4.03;43.22;100475.84;6089268;28;98157;-65
2022/01/13 00:40:20;;;;;;;;;66.60;50.00;;;;;4.16;43.39;100495.91;6071199;28;99605;-65
2022/01/13 00:43:23;;;;;;;;;70.00;51.00;;;;;4.26;43.15;100491.41;6088009;28;96945;-65
2022/01/13 00:46:38;;;;;;;;;67.40;52.00;;;;;4.34;43.23;100496.91;6089236;28;97469;-65
2022/01/13 00:49:43;;;;;;;;;68.00;51.00;;;;;4.36;43.80;100488.72;6089337;28;97427;-65
2022/01/13 00:52:46;;;;;;;;;65.60;50.40;;;;;4.34;43.78;100488.06;6088923;28;96775;-65
2022/01/13 00:55:58;;;;;;;;;65.60;50.80;;;;;4.41;43.92;100483.81;6088836;28;96674;-65
2022/01/13 00:59:03;;;;;;;;;65.75;49.00;;;;;4.50;43.71;100479.44;6088933;28;97459;-65
2022/01/13 01:02:06;;;;;;;;;66.00;50.00;;;;;4.45;43.70;100495.88;6090611;28;97571;-65
2022/01/13 01:05:10;;;;;;;;;68.00;51.00;;;;;4.53;43.36;100508.53;6093034;28;97790;-66
2022/01/13 01:08:13;;;;;;;;;64.80;49.00;;;;;4.58;43.59;100503.59;6092679;28;97409;-65
2022/01/13 01:11:21;;;;;;;;;65.20;50.00;;;;;4.64;43.44;100503.03;6091311;28;97982;-65
2022/01/13 01:14:25;;;;;;;;;64.67;48.00;;;;;4.60;43.62;100518.50;6092303;28;96698;-65
2022/01/13 01:17:29;;;;;;;;;64.00;50.00;;;;;4.57;43.92;100513.44;6092528;28;97716;-65
2022/01/13 01:20:46;;;;;;;;;65.60;50.00;;;;;4.66;43.66;100519.75;6092435;28;97155;-65
2022/01/13 01:27:19;;;;;;;;;65.00;50.00;;;;;4.65;44.03;100510.88;6092759;28;97211;-65
2022/01/13 01:30:31;;;;;;;;;66.80;49.20;;;;;4.70;44.04;100510.44;6091406;28;96424;-65
2022/01/13 01:33:37;;;;;;;;;67.40;51.40;;;;;4.59;44.80;100511.50;6090667;28;97180;-65
2022/01/13 01:36:42;;;;;;;;;65.20;49.40;;;;;4.71;44.65;100507.66;6090631;28;97412;-65
2022/01/13 01:39:47;;;;;;;;;67.40;51.00;;;;;4.75;44.74;100530.41;6090404;28;97472;-65
2022/01/13 01:42:52;;;;;;;;;62.60;50.00;;;;;4.85;44.60;100524.19;6072704;28;97768;-65
2022/01/13 01:45:56;;;;;;;;;64.75;50.00;;;;;4.86;44.78;100524.06;6089257;28;97195;-65
2022/01/13 01:49:03;;;;;;;;;64.00;50.00;;;;;4.93;44.67;100517.16;6092019;28;97196;-65
2022/01/13 01:52:09;;;;;;;;;65.00;50.00;;;;;4.82;45.40;100503.97;6067466;28;97579;-65
2022/01/13 01:55:12;;;;;;;;;62.00;47.25;;;;;4.84;46.41;100503.81;6054129;28;96748;-65
2022/01/13 01:58:17;;;;;;;;;64.00;49.40;;;;;4.85;46.61;100508.16;6106524;28;97448;-65
2022/01/13 02:01:20;;;;;;;;;60.80;48.00;;;;;4.64;47.93;100503.03;6091470;28;97493;-65
2022/01/13 02:04:26;;;;;;;;;61.00;48.00;;;;;4.65;48.32;100508.22;6092310;28;97764;-65
2022/01/13 02:07:30;;;;;;;;;62.00;48.00;;;;;4.72;48.78;100509.34;6092249;28;96682;-65
2022/01/13 02:10:33;;;;;;;;;63.00;48.00;;;;;4.71;49.10;100506.78;6091916;28;97514;-65
2022/01/13 02:13:45;;;;;;;;;63.00;49.60;;;;;4.51;49.51;100481.97;6090164;28;97086;-65
2022/01/13 02:16:51;;;;;;;;;64.60;50.00;;;;;4.57;49.97;100493.91;6068071;28;96580;-65
2022/01/13 02:19:57;;;;;;;;;64.50;48.00;;;;;4.58;50.17;100495.59;6051363;28;97678;-65
2022/01/13 02:23:01;;;;;;;;;62.00;47.60;;;;;4.56;50.71;100533.13;6089976;28;96695;-65
2022/01/13 02:26:06;;;;;;;;;61.00;46.50;;;;;4.75;50.99;100542.94;6091349;28;98702;-65
2022/01/13 02:29:10;;;;;;;;;60.00;46.40;;;;;4.70;51.23;100515.78;6090058;28;100847;-65
2022/01/13 02:32:14;;;;;;;;;59.00;45.67;;;;;4.60;51.58;100514.97;6089696;28;97069;-65
2022/01/13 02:35:18;;;;;;;;;59.60;46.00;;;;;4.66;51.51;100503.72;6091793;28;97451;-65
2022/01/13 02:38:23;;;;;;;;;60.00;45.00;;;;;4.63;52.31;100486.16;6091099;28;97468;-65
2022/01/13 02:41:26;;;;;;;;;58.75;44.25;;;;;4.56;52.49;100462.84;6089033;28;97834;-65
2022/01/13 02:44:31;;;;;;;;;58.25;44.00;;;;;4.72;52.03;100473.75;6091380;28;97536;-65
2022/01/13 02:47:47;;;;;;;;;55.40;43.00;;;;;4.71;52.41;100451.53;6090980;28;96663;-65
2022/01/13 02:50:52;;;;;;;;;55.60;42.00;;;;;4.82;52.89;100447.00;6089966;28;98554;-65
2022/01/13 02:53:57;;;;;;;;;50.50;41.00;;;;;4.80;53.53;100426.59;6073503;28;96944;-65
2022/01/13 02:57:00;;;;;;;;;55.00;41.00;;;;;4.94;53.25;100435.97;6090084;28;97370;-65
2022/01/13 03:00:05;;;;;;;;;51.00;40.00;;;;;4.96;54.05;100457.22;6089134;28;96892;-65
2022/01/13 03:03:08;;;;;;;;;49.33;39.33;;;;;4.94;54.21;100459.16;6089255;28;97158;-65
2022/01/13 03:06:15;;;;;;;;;49.00;38.80;;;;;4.95;54.27;100468.88;6089322;28;97131;-65
2022/01/13 03:09:21;;;;;;;;;50.60;40.00;;;;;5.02;54.00;100476.19;6089090;28;96974;-65
2022/01/13 03:12:26;;;;;;;;;48.40;38.20;;;;;5.06;54.40;100492.75;6089255;28;97541;-64
2022/01/13 03:15:33;;;;;;;;;47.00;38.40;;;;;5.08;54.32;100483.59;6090559;28;97209;-65
2022/01/13 03:18:36;;;;;;;;;46.60;37.60;;;;;5.16;54.41;100491.72;6090893;28;97553;-65
2022/01/13 03:21:40;;;;;;;;;46.60;38.00;;;;;5.18;54.79;100480.91;6105189;28;97042;-65
2022/01/13 03:24:45;;;;;;;;;48.60;36.60;;;;;5.26;54.68;100477.47;6089401;28;97200;-65
2022/01/13 03:27:53;;;;;;;;;44.80;35.00;;;;;5.27;54.71;100480.00;6088759;28;98531;-65
2022/01/13 03:30:59;;;;;;;;;46.25;37.25;;;;;5.35;54.45;100482.75;6105208;28;97119;-65
2022/01/13 03:34:03;;;;;;;;;45.00;35.00;;;;;5.33;54.71;100465.16;6089040;28;98025;-65
2022/01/13 03:37:07;;;;;;;;;44.60;35.00;;;;;5.31;54.68;100429.72;6090310;28;97530;-65
2022/01/13 03:40:13;;;;;;;;;44.50;35.00;;;;;5.41;54.83;100458.09;6105216;28;96594;-65
2022/01/13 03:43:17;;;;;;;;;39.25;33.00;;;;;5.53;54.35;100448.84;6089392;28;97245;-65
2022/01/13 03:46:21;;;;;;;;;42.67;32.00;;;;;5.61;54.57;100442.75;6089200;28;98500;-65
2022/01/13 03:49:25;;;;;;;;;39.40;32.40;;;;;5.57;54.84;100447.53;6090188;28;97812;-64
2022/01/13 03:53:01;;;;;;;;;38.40;31.00;;;;;5.57;55.20;100428.81;6088636;28;97590;-64
2022/01/13 03:56:38;;;;;;;;;36.00;30.20;;;;;5.55;55.17;100435.31;6076930;28;97398;-64
2022/01/13 04:00:17;;;;;;;;;33.00;29.00;;;;;5.51;55.61;100458.03;6089876;28;97503;-65
2022/01/13 04:03:20;;;;;;;;;31.50;28.00;;;;;5.60;55.42;100466.00;6066517;28;96598;-64
2022/01/13 04:06:48;;;;;;;;;28.60;26.00;;;;;5.59;55.81;100458.09;6090291;28;98168;-65
2022/01/13 04:10:27;;;;;;;;;26.50;24.00;;;;;5.67;55.55;100468.88;6071540;28;97527;-65
2022/01/13 04:13:47;;;;;;;;;33.40;28.00;;;;;5.74;55.39;100458.41;6092044;28;97540;-65
2022/01/13 04:16:52;;;;;;;;;30.00;25.80;;;;;5.70;55.63;100454.38;6090332;28;96610;-64
2022/01/13 04:19:55;;;;;;;;;28.75;25.75;;;;;5.71;55.48;100450.72;6089245;28;96687;-65
2022/01/13 04:22:58;;;;;;;;;27.40;22.80;;;;;5.75;55.35;100452.09;6090264;28;96839;-65
2022/01/13 04:26:05;;;;;;;;;29.00;25.00;;;;;5.84;55.15;100448.47;6089259;28;96635;-64
2022/01/13 04:29:19;;;;;;;;;30.00;25.40;;;;;5.79;55.47;100442.75;6089967;28;97835;-64
2022/01/13 04:32:24;;;;;;;;;29.50;24.00;;;;;5.69;55.74;100445.50;6088044;28;97199;-65
2022/01/13 04:35:27;;;;;;;;;26.00;24.00;;;;;5.65;55.61;100438.78;6086449;28;96844;-65
2022/01/13 04:38:30;;;;;;;;;25.40;23.40;;;;;5.75;55.58;100446.72;6090944;28;98568;-65
2022/01/13 04:41:36;;;;;;;;;22.00;19.60;;;;;5.68;55.58;100435.78;6091822;28;96598;-65
2022/01/13 04:44:39;;;;;;;;;24.00;21.00;;;;;5.79;55.28;100435.56;6090786;28;98578;-65
2022/01/13 04:47:45;;;;;;;;;26.00;24.00;;;;;5.56;55.90;100415.63;6092603;28;97471;-65
2022/01/13 04:50:48;;;;;;;;;24.60;22.60;;;;;5.62;55.69;100423.84;6098635;28;97073;-65
2022/01/13 04:53:51;;;;;;;;;24.00;22.00;;;;;5.63;56.05;100424.69;6108917;28;96707;-65
2022/01/13 04:57:06;;;;;;;;;28.00;23.60;;;;;5.72;55.59;100428.31;6093633;28;96523;-65
2022/01/13 05:00:11;;;;;;;;;30.00;24.00;;;;;5.79;55.67;100437.41;6093135;28;97607;-65
2022/01/13 05:03:16;;;;;;;;;24.00;22.75;;;;;5.92;54.98;100437.88;6108023;28;97178;-65
2022/01/13 05:06:19;;;;;;;;;23.60;20.60;;;;;5.82;55.06;100439.75;6100474;28;97486;-65
2022/01/13 05:09:22;;;;;;;;;24.00;22.40;;;;;5.91;54.65;100449.59;6093258;28;97611;-65
2022/01/13 05:12:31;;;;;;;;;25.60;21.00;;;;;6.04;54.64;100439.31;6088795;28;98044;-65
2022/01/13 05:15:36;;;;;;;;;23.25;22.25;;;;;6.13;54.30;100437.56;6092463;28;96580;-66
2022/01/13 05:18:48;;;;;;;;;29.00;23.20;;;;;6.09;54.45;100434.34;6108673;28;96739;-65
2022/01/13 05:22:15;;;;;;;;;28.00;24.00;;;;;6.08;54.36;100430.84;6093702;28;97248;-65
2022/01/13 05:25:19;;;;;;;;;28.00;23.00;;;;;6.15;54.07;100424.84;6093208;28;96715;-65
2022/01/13 05:28:22;;;;;;;;;22.00;20.00;;;;;6.00;54.85;100425.41;6093127;28;96520;-64
2022/01/13 05:31:25;;;;;;;;;26.00;23.80;;;;;6.00;54.73;100435.28;6082160;28;96628;-64
2022/01/13 05:34:30;;;;;;;;;27.50;23.50;;;;;6.14;54.48;100431.19;6067937;28;97547;-64
2022/01/13 05:37:49;;;;;;;;;23.50;22.00;;;;;6.02;54.74;100426.09;6064635;28;96829;-65
2022/01/13 05:40:58;;;;;;;;;26.00;22.25;;;;;6.15;54.98;100440.94;6066948;28;97473;-65
2022/01/13 05:44:01;;;;;;;;;24.40;22.40;;;;;6.13;54.92;100421.47;6064979;28;98304;-64
2022/01/13 05:47:05;;;;;;;;;28.00;26.00;;;;;6.03;55.20;100422.41;6065529;28;97255;-65
2022/01/13 05:50:12;;;;;;;;;28.80;24.80;;;;;6.20;54.82;100418.03;6067508;28;97447;-65
2022/01/13 05:53:15;;;;;;;;;27.80;25.20;;;;;4.42;54.78;100129.50;6065636;28;97680;-65
2022/01/13 05:56:19;;;;;;;;;28.25;25.25;;;;;6.28;54.65;100417.25;6064372;28;98028;-65
2022/01/13 05:59:23;;;;;;;;;26.00;24.00;;;;;6.15;55.12;100415.00;6065979;28;97441;-64
2022/01/13 06:02:26;;;;;;;;;30.00;26.00;;;;;6.19;55.03;100410.16;6050632;28;97164;-65
2022/01/13 06:05:31;;;;;;;;;33.00;26.00;;;;;6.27;55.16;100418.22;6035490;28;98705;-64
2022/01/13 06:08:35;;;;;;;;;29.60;25.00;;;;;6.26;54.98;100419.22;6065957;28;96843;-65
2022/01/13 06:11:40;;;;;;;;;31.20;26.20;;;;;6.31;54.68;100419.59;6066333;28;96739;-64
2022/01/13 06:14:44;;;;;;;;;32.75;28.50;;;;;6.28;54.76;100427.97;6046104;28;97465;-65
2022/01/13 06:17:49;;;;;;;;;35.00;26.50;;;;;6.21;55.07;100427.72;6063958;28;98649;-65
2022/01/13 06:20:53;;;;;;;;;34.40;27.00;;;;;6.16;55.30;100422.00;6052495;28;96881;-66
2022/01/13 06:23:57;;;;;;;;;29.80;26.40;;;;;6.17;55.00;100409.47;6063215;28;97212;-65
2022/01/13 06:27:00;;;;;;;;;30.40;26.00;;;;;6.24;54.94;100418.56;6074509;28;96889;-65
2022/01/13 06:30:05;;;;;;;;;30.20;26.00;;;;;6.23;54.92;100422.22;6065075;28;97575;-65
2022/01/13 06:33:08;;;;;;;;;34.00;29.20;;;;;6.28;55.00;100419.94;6088859;28;96512;-66
2022/01/13 06:36:13;;;;;;;;;31.00;27.40;;;;;6.18;55.34;100428.06;6088139;28;99622;-64
2022/01/13 06:39:17;;;;;;;;;29.60;26.80;;;;;5.97;55.52;100401.63;6087963;28;97867;-65
2022/01/13 06:42:20;;;;;;;;;28.25;24.75;;;;;5.98;55.73;100429.22;6088354;28;97008;-65
2022/01/13 06:45:23;;;;;;;;;35.00;30.00;;;;;6.16;55.14;100427.34;6089147;28;97501;-65
2022/01/13 06:48:26;;;;;;;;;31.00;28.00;;;;;6.14;55.40;100420.50;6089803;28;97700;-66
2022/01/13 06:51:31;;;;;;;;;36.00;30.00;;;;;6.31;54.85;100433.00;6089339;28;96948;-67
2022/01/13 06:54:35;;;;;;;;;32.00;29.00;;;;;6.18;54.69;100413.81;6089573;28;97167;-65
2022/01/13 06:57:39;;;;;;;;;34.60;29.00;;;;;6.44;54.37;100436.13;6089906;28;97528;-64
2022/01/13 07:00:42;;;;;;;;;30.80;26.00;;;;;6.46;54.23;100444.81;6087870;28;97656;-67
2022/01/13 07:03:45;;;;;;;;;34.75;29.00;;;;;6.31;54.57;100441.03;6087686;28;96539;-65
2022/01/13 07:06:51;;;;;;;;;31.00;25.00;;;;;6.34;54.42;100443.41;6088211;28;97513;-65
2022/01/13 07:09:54;;;;;;;;;32.40;30.00;;;;;6.44;54.05;100428.91;6087645;28;98454;-66
2022/01/13 07:12:57;;;;;;;;;30.60;26.60;;;;;6.48;53.78;100432.97;6087833;28;96753;-65
2022/01/13 07:16:05;;;;;;;;;28.20;24.00;;;;;6.46;53.83;100418.03;6088477;28;97924;-67
2022/01/13 07:19:10;;;;;;;;;24.20;21.20;;;;;6.48;53.81;100413.38;6087717;28;97648;-66
2022/01/13 07:22:17;;;;;;;;;28.40;24.60;;;;;6.42;53.48;100396.06;6088946;28;97498;-67
2022/01/13 07:25:20;;;;;;;;;34.00;26.00;;;;;6.57;53.39;100411.56;6087977;28;97688;-66
2022/01/13 07:28:23;;;;;;;;;33.00;25.50;;;;;6.56;53.45;100407.19;6089477;28;97197;-67
2022/01/13 07:31:28;;;;;;;;;27.75;23.00;;;;;6.71;52.99;100405.59;6083724;28;97116;-67
2022/01/13 07:34:31;;;;;;;;;32.00;25.60;;;;;6.76;53.02;100414.00;6065428;28;96989;-66
2022/01/13 07:37:35;;;;;;;;;28.00;24.00;;;;;6.62;52.93;100415.44;6051772;28;97827;-66
2022/01/13 07:40:39;;;;;;;;;30.00;26.60;;;;;6.54;53.01;100412.75;6064131;28;97516;-63
2022/01/13 07:43:47;;;;;;;;;23.00;21.00;;;;;6.33;53.57;100428.34;6051004;28;98419;-63
2022/01/13 07:46:50;;;;;;;;;24.80;22.20;;;;;6.52;53.12;100444.19;6062720;28;96582;-65
2022/01/13 07:49:54;;;;;;;;;22.80;21.00;;;;;6.33;53.54;100431.84;6046721;28;98474;-66
2022/01/13 07:52:58;;;;;;;;;23.60;21.40;;;;;6.42;53.12;100428.22;6071888;28;96450;-66
2022/01/13 07:56:02;;;;;;;;;22.50;19.50;;;;;6.44;52.98;100387.91;6064322;28;97434;-66
2022/01/13 07:59:05;;;;;;;;;24.60;23.00;;;;;6.67;52.58;100391.69;6069612;28;97938;-66
2022/01/13 08:02:08;;;;;;;;;22.00;18.60;;;;;6.61;52.77;100386.13;6071745;28;97272;-66
2022/01/13 08:05:13;;;;;;;;;20.00;19.00;;;;;6.63;52.64;100368.91;6032099;28;97314;-68
2022/01/13 08:08:17;;;;;;;;;22.00;20.60;;;;;6.64;52.72;100342.94;6062922;28;97553;-67
2022/01/13 08:11:21;;;;;;;;;25.00;22.40;;;;;6.68;52.59;100363.91;6071558;28;97456;-67
2022/01/13 08:14:24;;;;;;;;;22.80;21.00;;;;;6.59;52.80;100335.38;6064512;28;97558;-65
2022/01/13 08:20:48;;;;;;;;;19.80;18.00;;;;;6.74;52.24;100343.66;6076461;28;96549;-65
2022/01/13 08:23:52;;;;;;;;;23.00;20.00;;;;;6.81;52.06;100342.00;6046852;28;96851;-67
2022/01/13 08:26:56;;;;;;;;;19.20;17.80;;;;;6.96;51.44;100337.69;6049209;28;96746;-67
2022/01/13 08:29:59;;;;;;;;;22.60;19.40;;;;;6.99;51.42;100336.53;6072574;28;96531;-67
2022/01/13 08:33:02;;;;;;;;;21.50;20.00;;;;;7.04;51.15;100353.78;6069056;28;96592;-66
2022/01/13 08:36:07;;;;;;;;;21.00;18.60;;;;;7.21;50.82;100350.16;6056228;28;98646;-65
2022/01/13 08:39:12;;;;;;;;;22.67;20.67;;;;;7.32;50.50;100347.16;6063852;28;97499;-64
2022/01/13 08:42:16;;;;;;;;;20.00;19.00;;;;;7.15;50.03;100323.16;6078328;28;97515;-66
2022/01/13 08:45:19;;;;;;;;;24.25;22.25;;;;;7.34;50.42;100341.63;6048638;28;96609;-68
2022/01/13 08:48:23;;;;;;;;;22.00;20.20;;;;;7.37;50.24;100347.53;6063896;28;98195;-67
2022/01/13 08:51:26;;;;;;;;;25.00;22.60;;;;;7.48;49.99;100350.88;6061470;28;99817;-67
2022/01/13 08:54:31;;;;;;;;;25.00;23.00;;;;;7.65;49.55;100360.63;6053742;28;97765;-66
2022/01/13 08:57:34;;;;;;;;;21.00;19.60;;;;;7.70;49.44;100350.22;6065134;28;97513;-66
2022/01/13 09:00:38;;;;;;;;;23.20;21.20;;;;;7.85;49.36;100348.53;6065749;28;97571;-67
2022/01/13 09:03:42;;;;;;;;;24.00;21.60;;;;;7.98;48.92;100329.22;6059765;28;97143;-66
2022/01/13 09:06:46;;;;;;;;;22.80;21.00;;;;;8.10;48.82;100320.66;6064917;28;96606;-66
2022/01/13 09:09:51;;;;;;;;;23.80;22.80;;;;;8.38;48.35;100323.78;6064156;28;97507;-66
2022/01/13 09:12:54;;;;;;;;;25.80;22.80;;;;;8.68;47.48;100327.56;6064599;28;97734;-64
2022/01/13 09:15:59;;;;;;;;;26.00;22.75;;;;;9.08;47.00;100321.13;6079375;28;96921;-67
2022/01/13 09:19:08;;;;;;;;;25.00;23.00;;;;;9.11;46.47;100310.84;6068150;28;97226;-67
2022/01/13 09:22:12;;;;;;;;;24.40;21.80;;;;;9.56;45.79;100299.25;6062865;28;97681;-67
2022/01/13 09:25:17;;;;;;;;;25.60;24.00;;;;;10.31;44.30;100307.31;6068342;28;96686;-67
2022/01/13 09:28:20;;;;;;;;;27.00;24.40;;;;;10.67;43.44;100317.34;6068462;28;97302;-67
2022/01/13 09:31:24;;;;;;;;;30.80;28.40;;;;;10.64;42.74;100315.03;6057253;28;97341;-69
2022/01/13 09:34:27;;;;;;;;;30.00;28.40;;;;;10.63;43.01;100326.84;6063043;28;97502;-66
2022/01/13 09:37:30;;;;;;;;;39.67;32.00;;;;;10.67;42.67;100325.44;6068478;28;97065;-66
2022/01/13 09:40:35;;;;;;;;;38.40;32.00;;;;;10.45;42.40;100312.91;6067770;28;96656;-65
2022/01/13 09:43:39;;;;;;;;;39.33;32.33;;;;;10.80;42.60;100323.75;6066424;28;97502;-67
2022/01/13 09:46:44;;;;;;;;;41.60;33.00;;;;;10.81;42.13;100311.09;6051383;28;96963;-66
2022/01/13 09:49:49;;;;;;;;;39.40;33.00;;;;;10.89;41.76;100320.97;6047738;28;98401;-68
2022/01/13 09:52:54;;;;;;;;;42.00;35.00;;;;;10.76;41.40;100321.59;6065540;28;96881;-68
2022/01/13 09:55:58;;;;;;;;;42.40;33.60;;;;;10.89;41.02;100302.06;6065802;28;96671;-64
2022/01/13 09:59:01;;;;;;;;;44.00;36.60;;;;;11.02;40.96;100300.34;6062486;28;98263;-64
2022/01/13 10:02:05;;;;;;;;;45.00;35.00;;;;;11.30;40.44;100279.69;6063885;28;96912;-65
2022/01/13 10:05:09;;;;;;;;;45.00;35.00;;;;;11.77;39.46;100301.75;6055138;28;98094;-67
2022/01/13 10:08:12;;;;;;;;;44.00;35.00;;;;;12.18;38.62;100302.69;6067341;28;97226;-64
2022/01/13 10:11:34;;;;;;;;;43.40;36.00;;;;;12.43;38.14;100290.38;6061921;28;98573;-66
2022/01/13 10:17:58;;;;;;;;;44.00;35.00;;;;;13.28;35.71;100294.50;6051097;28;97038;-69
2022/01/13 10:21:06;;;;;;;;;43.60;35.00;;;;;13.26;35.88;100296.56;6063189;28;96677;-66
2022/01/13 10:24:12;;;;;;;;;46.20;36.00;;;;;12.79;36.29;100297.41;6068108;28;97158;-67
2022/01/13 10:27:19;;;;;;;;;46.00;37.25;;;;;12.49;36.78;100289.59;6032902;28;96713;-66
2022/01/13 10:30:25;;;;;;;;;45.00;34.80;;;;;12.12;37.28;100281.84;6068294;28;97588;-65
2022/01/13 10:33:30;;;;;;;;;44.00;35.00;;;;;11.90;37.77;100274.84;6087997;28;96501;-66
2022/01/13 10:36:34;;;;;;;;;44.50;35.50;;;;;11.33;38.68;100273.06;6089758;28;97440;-66
2022/01/13 10:39:49;;;;;;;;;45.00;35.50;;;;;10.90;39.37;100223.59;6088679;28;97582;-67
2022/01/13 10:43:10;;;;;;;;;47.20;36.00;;;;;10.98;39.90;100260.44;6086987;28;97613;-67
2022/01/13 10:46:13;;;;;;;;;39.80;33.60;;;;;10.74;40.13;100254.38;6088440;28;96749;-67
2022/01/13 10:49:16;;;;;;;;;42.00;33.00;;;;;10.49;40.53;100252.19;6103269;28;97538;-66
2022/01/13 10:52:26;;;;;;;;;39.60;33.00;;;;;10.40;40.84;100238.81;6085556;28;99818;-65
2022/01/13 10:55:31;;;;;;;;;44.00;33.60;;;;;10.15;41.45;100237.41;6089269;28;98510;-64
2022/01/13 10:58:52;;;;;;;;;36.60;32.00;;;;;10.19;41.43;100246.81;6075333;28;96831;-64
2022/01/13 11:02:08;;;;;;;;;34.40;30.40;;;;;10.12;41.33;100231.53;6090493;28;97149;-67
2022/01/13 11:05:13;;;;;;;;;39.00;32.00;;;;;9.88;41.84;100236.16;6091112;28;98055;-66
2022/01/13 11:08:26;;;;;;;;;39.25;32.50;;;;;9.85;41.79;100219.53;6089537;28;97554;-66
2022/01/13 11:11:33;;;;;;;;;42.80;34.00;;;;;9.80;42.19;100230.03;6088261;28;98574;-66
2022/01/13 11:14:42;;;;;;;;;38.75;30.75;;;;;9.86;42.33;100235.53;6073469;28;97238;-65
2022/01/13 11:17:46;;;;;;;;;34.80;30.60;;;;;9.93;42.53;100241.84;6087167;28;97331;-66
2022/01/13 11:20:50;;;;;;;;;33.00;31.00;;;;;9.99;42.41;100222.25;6089642;28;96651;-66
2022/01/13 11:23:55;;;;;;;;;32.20;29.80;;;;;10.06;42.38;100211.56;6088564;28;97086;-66
2022/01/13 11:27:00;;;;;;;;;36.00;30.40;;;;;9.80;42.66;100198.56;6103485;28;96777;-67
2022/01/13 11:30:08;;;;;;;;;35.40;30.80;;;;;9.90;42.67;100192.88;6071437;28;97587;-67
2022/01/13 11:33:11;;;;;;;;;35.80;30.00;;;;;9.91;42.57;100181.94;6076873;28;96663;-64
2022/01/13 11:36:20;;;;;;;;;32.00;29.00;;;;;9.86;42.69;100187.03;6074298;28;97888;-67
2022/01/13 11:39:37;;;;;;;;;29.20;25.40;;;;;9.90;42.85;100179.41;6088605;28;97162;-68
2022/01/13 11:42:48;;;;;;;;;28.75;25.00;;;;;10.00;42.91;100196.97;6087125;28;97876;-67
2022/01/13 11:45:52;;;;;;;;;27.00;25.00;;;;;9.95;42.82;100185.94;6069739;28;97786;-68
2022/01/13 11:49:01;;;;;;;;;29.00;26.00;;;;;10.07;42.80;100185.47;6088669;28;96776;-66
2022/01/13 11:52:13;;;;;;;;;31.00;26.00;;;;;10.11;42.84;100181.38;6070819;28;98118;-66
2022/01/13 11:55:21;;;;;;;;;27.00;24.20;;;;;10.04;42.76;100175.03;6088160;28;97040;-66
2022/01/13 11:58:46;;;;;;;;;30.00;27.00;;;;;10.11;42.64;100162.50;6088375;28;97498;-68
2022/01/13 12:01:51;;;;;;;;;32.33;30.00;;;;;9.96;42.58;100146.34;6088908;28;97201;-67
2022/01/13 12:05:02;;;;;;;;;32.40;27.00;;;;;9.96;42.65;100139.09;6070379;28;96834;-67
2022/01/13 12:08:06;;;;;;;;;36.00;31.00;;;;;10.07;42.54;100142.34;6068600;28;97929;-66
2022/01/13 12:11:11;;;;;;;;;32.00;30.00;;;;;10.04;42.30;100123.84;6086604;28;97483;-67
2022/01/13 12:14:39;;;;;;;;;35.00;30.00;;;;;10.23;41.99;100121.44;6103981;28;97357;-65
2022/01/13 12:17:47;;;;;;;;;36.00;30.20;;;;;10.18;42.19;100120.31;6088623;28;96740;-67
2022/01/13 12:21:09;;;;;;;;;34.00;30.00;;;;;10.20;42.04;100119.13;6088344;28;97245;-68
2022/01/13 12:24:18;;;;;;;;;34.00;31.00;;;;;10.24;42.03;100112.31;6087077;28;98567;-65
2022/01/13 12:27:24;;;;;;;;;35.40;30.00;;;;;10.21;41.84;100119.97;6089598;28;98162;-67
2022/01/13 12:30:29;;;;;;;;;33.80;29.80;;;;;10.46;41.66;100112.38;6090432;28;97148;-68
2022/01/13 12:33:34;;;;;;;;;34.80;31.40;;;;;10.45;41.47;100110.69;6086075;28;96586;-65
2022/01/13 12:36:43;;;;;;;;;35.00;30.00;;;;;10.34;41.54;100091.28;6096328;28;97653;-66
2022/01/13 12:39:48;;;;;;;;;34.20;30.00;;;;;10.39;41.53;100102.34;6082513;28;97203;-68
2022/01/13 12:42:54;;;;;;;;;32.20;27.00;;;;;10.47;41.23;100093.28;6096500;28;96683;-67
2022/01/13 12:45:58;;;;;;;;;35.00;30.00;;;;;10.57;41.32;100104.59;6097706;28;96700;-67
2022/01/13 12:49:03;;;;;;;;;29.00;26.80;;;;;10.43;41.47;100100.91;6102842;28;96677;-67
2022/01/13 12:52:08;;;;;;;;;31.00;26.00;;;;;10.46;41.51;100094.28;6073261;28;97321;-68
2022/01/13 12:55:12;;;;;;;;;33.60;29.60;;;;;10.39;41.81;100085.31;6080093;28;97097;-67
2022/01/13 12:58:15;;;;;;;;;30.00;25.20;;;;;10.23;41.93;100059.44;6093703;28;98159;-67
2022/01/13 13:01:35;;;;;;;;;33.40;29.00;;;;;10.25;42.18;100076.25;6089339;28;97812;-66
2022/01/13 13:04:39;;;;;;;;;31.00;27.00;;;;;10.13;42.61;100055.34;6067727;28;96865;-67
2022/01/13 13:07:43;;;;;;;;;33.60;26.00;;;;;10.20;42.43;100067.91;6090264;28;97196;-67
2022/01/13 13:10:49;;;;;;;;;28.20;25.40;;;;;9.96;43.14;100065.53;6069526;28;98472;-67
2022/01/13 13:13:53;;;;;;;;;26.00;23.00;;;;;9.92;43.20;100067.75;6092008;28;97503;-68
2022/01/13 13:16:56;;;;;;;;;28.00;26.00;;;;;9.81;43.40;100067.41;6086148;28;97357;-68
2022/01/13 13:20:02;;;;;;;;;30.20;26.00;;;;;9.82;43.51;100048.34;6074174;28;96595;-68
2022/01/13 13:23:10;;;;;;;;;29.60;26.00;;;;;9.72;43.84;100055.91;6077613;28;96728;-66
2022/01/13 13:26:15;;;;;;;;;28.25;26.25;;;;;9.85;43.56;100047.16;6087704;28;97438;-66
2022/01/13 13:29:24;;;;;;;;;29.20;27.00;;;;;9.96;43.48;100046.66;6090779;28;96534;-66
2022/01/13 13:32:27;;;;;;;;;29.33;26.00;;;;;9.79;44.11;100043.34;6091970;28;97465;-65
2022/01/13 13:35:32;;;;;;;;;28.60;25.40;;;;;9.78;44.36;100040.84;6090927;28;97484;-64
2022/01/13 13:38:56;;;;;;;;;28.25;24.50;;;;;9.71;44.78;100042.63;6090809;28;96666;-65
2022/01/13 13:42:02;;;;;;;;;26.40;23.60;;;;;9.73;44.94;100046.78;6091629;28;96491;-65
2022/01/13 13:45:10;;;;;;;;;29.00;25.00;;;;;9.75;45.20;100044.75;6090601;28;96888;-66
2022/01/13 13:48:13;;;;;;;;;26.60;23.60;;;;;9.82;45.12;100048.34;6091580;28;97994;-68
2022/01/13 13:51:22;;;;;;;;;26.40;23.40;;;;;9.83;45.62;100041.09;6091402;28;96579;-65
2022/01/13 13:54:28;;;;;;;;;30.00;26.00;;;;;9.90;45.34;100047.41;6090813;28;97606;-69
2022/01/13 13:57:37;;;;;;;;;26.80;23.20;;;;;10.02;45.32;100045.09;6083081;28;97558;-67
2022/01/13 14:00:40;;;;;;;;;29.00;25.50;;;;;9.92;45.81;100050.78;6092882;28;97565;-67
2022/01/13 14:03:45;;;;;;;;;28.00;26.00;;;;;9.99;45.69;100039.03;6092247;28;98356;-68
2022/01/13 14:06:49;;;;;;;;;27.50;25.00;;;;;9.81;46.27;100046.69;6088758;28;96805;-67
2022/01/13 14:09:56;;;;;;;;;28.50;26.25;;;;;9.85;46.42;100034.53;6090376;28;98001;-67
2022/01/13 14:13:03;;;;;;;;;27.00;24.67;;;;;9.80;46.36;100045.03;6090474;28;97092;-66
2022/01/13 14:16:06;;;;;;;;;35.80;29.40;;;;;9.70;46.78;100032.88;6092293;28;97530;-66
2022/01/13 14:19:12;;;;;;;;;32.40;26.40;;;;;9.66;46.72;100031.59;6090664;28;97683;-66
2022/01/13 14:22:22;;;;;;;;;26.60;25.60;;;;;9.74;46.88;100045.78;6091222;28;97195;-67
2022/01/13 14:25:30;;;;;;;;;29.60;27.60;;;;;9.75;47.06;100049.31;6087997;28;99039;-66